createdAt,value
2017-10-18T00:00:18.688Z,0
2017-10-18T00:01:18.691Z,0
2017-10-18T00:02:18.705Z,0
2017-10-18T00:03:18.683Z,0
2017-10-18T00:04:18.710Z,0
2017-10-18T00:05:18.699Z,0
2017-10-18T00:06:18.683Z,0
2017-10-18T00:07:18.692Z,0
2017-10-18T00:08:18.682Z,0
2017-10-18T00:09:18.716Z,0
2017-10-18T00:10:18.705Z,0
2017-10-18T00:11:18.699Z,0
2017-10-18T00:12:18.701Z,0
2017-10-18T00:13:18.682Z,0
2017-10-18T00:14:18.707Z,0
2017-10-18T00:15:18.698Z,0
2017-10-18T00:16:18.703Z,0
2017-10-18T00:17:18.680Z,0
2017-10-18T00:18:18.677Z,0
2017-10-18T00:19:18.699Z,0
2017-10-18T00:20:18.687Z,0
2017-10-18T00:21:18.702Z,0
2017-10-18T00:22:18.702Z,0
2017-10-18T00:23:18.695Z,0
2017-10-18T00:24:18.682Z,0
2017-10-18T00:25:18.685Z,0
2017-10-18T00:26:18.684Z,0
2017-10-18T00:27:18.686Z,0
2017-10-18T00:28:18.694Z,0
2017-10-18T00:29:18.689Z,0
2017-10-18T00:30:18.681Z,0
2017-10-18T00:31:18.736Z,0
2017-10-18T00:32:18.676Z,0
2017-10-18T00:33:18.679Z,0
2017-10-18T00:34:18.696Z,0
2017-10-18T00:35:18.691Z,0
2017-10-18T00:36:18.725Z,0
2017-10-18T00:37:18.691Z,0
2017-10-18T00:38:18.693Z,0
2017-10-18T00:39:18.692Z,0
2017-10-18T00:40:18.694Z,0
2017-10-18T00:41:18.710Z,0
2017-10-18T00:42:18.686Z,0
2017-10-18T00:43:18.689Z,0
2017-10-18T00:44:18.668Z,0
2017-10-18T00:45:18.692Z,0
2017-10-18T00:46:18.726Z,0
2017-10-18T00:47:18.667Z,0
2017-10-18T00:48:18.685Z,0
2017-10-18T00:49:18.689Z,0
2017-10-18T00:50:18.673Z,0
2017-10-18T00:51:18.752Z,0
2017-10-18T00:52:18.667Z,0
2017-10-18T00:53:18.675Z,0
2017-10-18T00:54:18.667Z,0
2017-10-18T00:55:18.667Z,0
2017-10-18T00:56:18.738Z,0
2017-10-18T00:57:18.669Z,0
2017-10-18T00:58:18.687Z,0
2017-10-18T00:59:18.691Z,0
2017-10-18T01:00:18.685Z,0
2017-10-18T01:01:18.754Z,0
2017-10-18T01:02:18.722Z,0
2017-10-18T01:03:18.671Z,0
2017-10-18T01:04:18.665Z,0
2017-10-18T01:05:18.684Z,0
2017-10-18T01:06:18.704Z,0
2017-10-18T01:07:18.685Z,0
2017-10-18T01:08:18.679Z,0
2017-10-18T01:09:18.660Z,0
2017-10-18T01:10:18.685Z,0
2017-10-18T01:11:18.658Z,0
2017-10-18T01:12:18.671Z,0
2017-10-18T01:13:18.675Z,0
2017-10-18T01:14:18.681Z,0
2017-10-18T01:15:18.663Z,0
2017-10-18T01:16:18.659Z,0
2017-10-18T01:17:18.676Z,0
2017-10-18T01:18:18.659Z,0
2017-10-18T01:19:18.681Z,0
2017-10-18T01:20:18.656Z,0
2017-10-18T01:21:18.675Z,0
2017-10-18T01:22:18.675Z,0
2017-10-18T01:23:18.660Z,0
2017-10-18T01:24:18.677Z,0
2017-10-18T01:25:18.675Z,0
2017-10-18T01:26:18.680Z,0
2017-10-18T01:27:18.675Z,0
2017-10-18T01:28:18.655Z,0
2017-10-18T01:29:18.661Z,0
2017-10-18T01:30:18.656Z,0
2017-10-18T01:31:18.653Z,0
2017-10-18T01:32:18.665Z,0
2017-10-18T01:33:18.667Z,0
2017-10-18T01:34:18.650Z,0
2017-10-18T01:35:18.666Z,0
2017-10-18T01:36:18.673Z,0
2017-10-18T01:37:18.657Z,0
2017-10-18T01:38:18.672Z,0
2017-10-18T01:39:18.667Z,0
2017-10-18T01:40:18.678Z,0
2017-10-18T01:41:18.678Z,0
2017-10-18T01:42:18.649Z,0
2017-10-18T01:43:18.656Z,0
2017-10-18T01:44:18.659Z,0
2017-10-18T01:45:18.673Z,0
2017-10-18T01:46:18.664Z,0
2017-10-18T01:47:18.633Z,0
2017-10-18T01:48:18.657Z,0
2017-10-18T01:49:18.652Z,0
2017-10-18T01:50:18.673Z,0
2017-10-18T01:51:18.654Z,0
2017-10-18T01:52:18.666Z,0
2017-10-18T01:53:18.671Z,0
2017-10-18T01:54:18.651Z,0
2017-10-18T01:55:18.644Z,0
2017-10-18T01:56:18.733Z,0
2017-10-18T01:57:18.671Z,0
2017-10-18T01:58:18.661Z,0
2017-10-18T01:59:18.654Z,0
2017-10-18T02:00:18.640Z,0
2017-10-18T02:01:18.646Z,0
2017-10-18T02:02:18.663Z,0
2017-10-18T02:03:18.663Z,0
2017-10-18T02:04:18.645Z,0
2017-10-18T02:05:18.665Z,0
2017-10-18T02:06:18.691Z,0
2017-10-18T02:07:18.685Z,0
2017-10-18T02:08:18.658Z,0
2017-10-18T02:09:18.649Z,0
2017-10-18T02:10:18.640Z,0
2017-10-18T02:11:18.657Z,0
2017-10-18T02:12:18.692Z,0
2017-10-18T02:13:18.634Z,0
2017-10-18T02:14:18.638Z,0
2017-10-18T02:15:18.661Z,0
2017-10-18T02:16:18.649Z,0
2017-10-18T02:17:18.722Z,0
2017-10-18T02:18:18.662Z,0
2017-10-18T02:19:18.649Z,0
2017-10-18T02:20:18.655Z,0
2017-10-18T02:21:18.661Z,0
2017-10-18T02:22:18.696Z,0
2017-10-18T02:23:18.667Z,0
2017-10-18T02:24:18.658Z,0
2017-10-18T02:25:18.656Z,0
2017-10-18T02:26:18.650Z,0
2017-10-18T02:27:18.701Z,0
2017-10-18T02:28:18.639Z,0
2017-10-18T02:29:18.633Z,0
2017-10-18T02:30:18.664Z,0
2017-10-18T02:31:18.633Z,0
2017-10-18T02:32:18.734Z,0
2017-10-18T02:33:18.658Z,0
2017-10-18T02:34:18.654Z,0
2017-10-18T02:35:18.634Z,0
2017-10-18T02:36:18.659Z,0
2017-10-18T02:37:18.716Z,0
2017-10-18T02:38:18.653Z,0
2017-10-18T02:39:18.655Z,0
2017-10-18T02:40:18.631Z,0
2017-10-18T02:41:18.647Z,0
2017-10-18T02:42:18.721Z,0
2017-10-18T02:43:18.647Z,0
2017-10-18T02:44:18.634Z,0
2017-10-18T02:45:18.650Z,0
2017-10-18T02:46:18.642Z,0
2017-10-18T02:47:18.716Z,0
2017-10-18T02:48:18.652Z,0
2017-10-18T02:49:18.628Z,0
2017-10-18T02:50:18.630Z,0
2017-10-18T02:51:18.649Z,0
2017-10-18T02:52:18.692Z,0
2017-10-18T02:53:18.647Z,0
2017-10-18T02:54:18.646Z,0
2017-10-18T02:55:18.651Z,0
2017-10-18T02:56:18.626Z,0
2017-10-18T02:57:18.715Z,0
2017-10-18T02:58:18.635Z,0
2017-10-18T02:59:18.647Z,0
2017-10-18T03:00:18.624Z,0
2017-10-18T03:01:18.619Z,0
2017-10-18T03:02:18.699Z,0
2017-10-18T03:03:18.627Z,0
2017-10-18T03:04:18.638Z,0
2017-10-18T03:05:18.623Z,0
2017-10-18T03:06:18.646Z,0
2017-10-18T03:07:18.683Z,0
2017-10-18T03:08:18.633Z,0
2017-10-18T03:09:18.624Z,0
2017-10-18T03:10:18.633Z,0
2017-10-18T03:11:18.616Z,0
2017-10-18T03:12:18.705Z,0
2017-10-18T03:17:18.692Z,0
2017-10-18T03:18:18.640Z,0
2017-10-18T03:19:18.630Z,0
2017-10-18T03:20:18.633Z,0
2017-10-18T03:21:18.616Z,0
2017-10-18T03:22:18.696Z,0
2017-10-18T03:23:18.614Z,0
2017-10-18T03:24:18.619Z,0
2017-10-18T03:25:18.620Z,0
2017-10-18T03:26:18.635Z,0
2017-10-18T03:27:18.666Z,0
2017-10-18T03:28:18.618Z,0
2017-10-18T03:29:18.621Z,0
2017-10-18T03:30:18.614Z,0
2017-10-18T03:31:18.612Z,0
2017-10-18T03:32:18.624Z,0
2017-10-18T03:33:18.638Z,0
2017-10-18T03:34:18.632Z,0
2017-10-18T03:35:18.631Z,0
2017-10-18T03:36:18.633Z,0
2017-10-18T03:37:18.608Z,0
2017-10-18T03:38:18.625Z,0
2017-10-18T03:39:18.625Z,0
2017-10-18T03:40:18.609Z,0
2017-10-18T03:41:18.648Z,0
2017-10-18T03:42:18.628Z,0
2017-10-18T03:43:18.622Z,0
2017-10-18T03:44:18.629Z,0
2017-10-18T03:45:18.608Z,0
2017-10-18T03:46:18.633Z,0
2017-10-18T03:47:18.628Z,0
2017-10-18T03:48:18.627Z,0
2017-10-18T03:49:18.633Z,0
2017-10-18T03:50:18.621Z,0
2017-10-18T03:51:18.627Z,0
2017-10-18T03:52:18.620Z,0
2017-10-18T03:53:18.620Z,0
2017-10-18T03:54:18.610Z,0
2017-10-18T03:55:18.624Z,0
2017-10-18T03:56:18.616Z,0
2017-10-18T03:57:18.615Z,0
2017-10-18T03:58:18.643Z,0
2017-10-18T03:59:18.615Z,0
2017-10-18T04:00:18.631Z,0
2017-10-18T04:01:18.613Z,0
2017-10-18T04:02:18.614Z,0
2017-10-18T04:03:18.647Z,0
2017-10-18T04:04:18.609Z,0
2017-10-18T04:05:18.611Z,0
2017-10-18T04:06:18.613Z,0
2017-10-18T04:07:18.616Z,0
2017-10-18T04:08:18.649Z,0
2017-10-18T04:09:18.621Z,0
2017-10-18T04:10:18.607Z,0
2017-10-18T04:11:18.601Z,0
2017-10-18T04:12:18.624Z,0
2017-10-18T04:13:18.645Z,0
2017-10-18T04:14:18.601Z,0
2017-10-18T04:15:18.615Z,0
2017-10-18T04:16:18.596Z,0
2017-10-18T04:17:18.597Z,0
2017-10-18T04:18:18.683Z,0
2017-10-18T04:19:18.601Z,0
2017-10-18T04:20:18.598Z,0
2017-10-18T04:21:18.617Z,0
2017-10-18T04:22:18.613Z,0
2017-10-18T04:23:18.668Z,0
2017-10-18T04:24:18.611Z,0
2017-10-18T04:25:18.618Z,0
2017-10-18T04:26:18.614Z,0
2017-10-18T04:27:18.607Z,0
2017-10-18T04:28:18.654Z,0
2017-10-18T04:29:18.618Z,0
2017-10-18T04:30:18.596Z,0
2017-10-18T04:31:18.611Z,0
2017-10-18T04:32:18.617Z,0
2017-10-18T04:33:18.590Z,0
2017-10-18T04:34:18.600Z,0
2017-10-18T04:35:18.609Z,0
2017-10-18T04:36:18.610Z,0
2017-10-18T04:37:18.603Z,0
2017-10-18T04:38:18.606Z,0
2017-10-18T04:39:18.592Z,0
2017-10-18T04:40:18.609Z,0
2017-10-18T04:41:18.611Z,0
2017-10-18T04:42:18.586Z,0
2017-10-18T04:43:18.607Z,0
2017-10-18T04:44:18.606Z,0
2017-10-18T04:45:18.605Z,0
2017-10-18T04:46:18.585Z,0
2017-10-18T04:47:18.866Z,0
2017-10-18T04:48:18.606Z,0
2017-10-18T04:49:18.611Z,0
2017-10-18T04:50:18.591Z,0
2017-10-18T04:51:18.607Z,0
2017-10-18T04:52:18.588Z,0
2017-10-18T04:53:18.603Z,0
2017-10-18T04:54:18.601Z,0
2017-10-18T04:55:18.610Z,0
2017-10-18T04:56:18.602Z,0
2017-10-18T04:57:18.606Z,0
2017-10-18T04:58:18.683Z,0
2017-10-18T04:59:18.602Z,0
2017-10-18T05:00:18.602Z,0
2017-10-18T05:01:18.605Z,0
2017-10-18T05:02:18.596Z,0
2017-10-18T05:03:18.581Z,0
2017-10-18T05:04:18.637Z,0
2017-10-18T05:05:18.603Z,0
2017-10-18T05:06:18.579Z,0
2017-10-18T05:07:18.586Z,0
2017-10-18T05:08:18.580Z,0
2017-10-18T05:09:18.631Z,0
2017-10-18T05:10:18.597Z,0
2017-10-18T05:11:18.592Z,0
2017-10-18T05:12:18.587Z,0
2017-10-18T05:13:18.578Z,0
2017-10-18T05:14:18.657Z,0
2017-10-18T05:15:18.588Z,0
2017-10-18T05:16:18.583Z,0
2017-10-18T05:17:18.598Z,0
2017-10-18T05:18:18.595Z,0
2017-10-18T05:19:18.655Z,0
2017-10-18T05:20:18.583Z,0
2017-10-18T05:21:18.600Z,0
2017-10-18T05:22:18.571Z,0
2017-10-18T05:23:18.592Z,0
2017-10-18T05:24:18.628Z,0
2017-10-18T05:25:18.577Z,0
2017-10-18T05:26:18.593Z,0
2017-10-18T05:27:18.578Z,0
2017-10-18T05:28:18.569Z,0
2017-10-18T05:29:18.569Z,0
2017-10-18T05:30:18.598Z,0
2017-10-18T05:31:18.575Z,0
2017-10-18T05:32:18.577Z,0
2017-10-18T05:33:18.600Z,0
2017-10-18T05:34:18.569Z,0
2017-10-18T05:35:18.567Z,0
2017-10-18T05:36:18.566Z,0
2017-10-18T05:37:18.590Z,0
2017-10-18T05:38:18.590Z,0
2017-10-18T05:39:18.583Z,0
2017-10-18T05:40:18.584Z,0
2017-10-18T05:41:18.595Z,0
2017-10-18T05:42:18.573Z,0
2017-10-18T05:43:18.571Z,0
2017-10-18T05:44:18.573Z,0
2017-10-18T05:45:18.589Z,0
2017-10-18T05:46:18.592Z,0
2017-10-18T05:47:18.563Z,0
2017-10-18T05:48:18.574Z,0
2017-10-18T05:49:18.585Z,0
2017-10-18T05:50:18.621Z,0
2017-10-18T05:51:18.567Z,0
2017-10-18T05:52:18.580Z,0
2017-10-18T05:53:18.565Z,0
2017-10-18T05:54:18.588Z,0
2017-10-18T05:55:18.653Z,0
2017-10-18T05:56:18.561Z,0
2017-10-18T05:57:18.583Z,0
2017-10-18T05:58:18.584Z,0
2017-10-18T05:59:18.581Z,0
2017-10-18T06:00:18.634Z,0
2017-10-18T06:01:18.577Z,0
2017-10-18T06:02:18.578Z,0
2017-10-18T06:03:18.588Z,0
2017-10-18T06:04:18.562Z,0
2017-10-18T06:05:18.602Z,0
2017-10-18T06:06:18.563Z,0
2017-10-18T06:07:18.575Z,0
2017-10-18T06:08:18.581Z,0
2017-10-18T06:09:18.578Z,0
2017-10-18T06:10:18.581Z,0
2017-10-18T06:11:18.559Z,0
2017-10-18T06:12:18.566Z,0
2017-10-18T06:13:18.565Z,0
2017-10-18T06:14:18.556Z,0
2017-10-18T06:15:18.577Z,0
2017-10-18T06:16:18.557Z,0
2017-10-18T06:17:18.552Z,0
2017-10-18T06:18:18.565Z,0
2017-10-18T06:19:18.572Z,0
2017-10-18T06:20:18.552Z,0
2017-10-18T06:21:18.559Z,0
2017-10-18T06:22:18.578Z,0
2017-10-18T06:23:18.574Z,0
2017-10-18T06:24:18.571Z,0
2017-10-18T06:25:18.551Z,0
2017-10-18T06:26:18.573Z,0
2017-10-18T06:27:18.578Z,0
2017-10-18T06:28:18.555Z,0
2017-10-18T06:29:18.561Z,0
2017-10-18T06:30:18.557Z,0
2017-10-18T06:31:18.555Z,0
2017-10-18T06:32:18.546Z,0
2017-10-18T06:33:18.550Z,0
2017-10-18T06:34:18.567Z,0
2017-10-18T06:35:18.567Z,0
2017-10-18T06:36:18.570Z,0
2017-10-18T06:37:18.551Z,0
2017-10-18T06:38:18.552Z,0
2017-10-18T06:39:18.569Z,0
2017-10-18T06:40:18.565Z,0
2017-10-18T06:41:18.550Z,0
2017-10-18T06:42:18.557Z,0
2017-10-18T06:43:18.541Z,0
2017-10-18T06:44:18.571Z,0
2017-10-18T06:45:18.569Z,0
2017-10-18T06:46:18.567Z,0
2017-10-18T06:47:18.561Z,0
2017-10-18T06:48:18.565Z,0
2017-10-18T06:49:18.538Z,0
2017-10-18T06:50:18.812Z,0
2017-10-18T06:51:18.629Z,0
2017-10-18T06:52:18.554Z,0
2017-10-18T06:53:18.559Z,0
2017-10-18T06:54:18.546Z,0
2017-10-18T06:55:18.536Z,0
2017-10-18T06:56:18.601Z,0
2017-10-18T06:57:18.540Z,0
2017-10-18T06:58:18.547Z,0
2017-10-18T06:59:18.538Z,0
2017-10-18T07:00:18.560Z,0
2017-10-18T07:01:18.605Z,0
2017-10-18T07:02:18.547Z,0
2017-10-18T07:03:18.564Z,0
2017-10-18T07:04:18.548Z,0
2017-10-18T07:05:18.536Z,0
2017-10-18T07:06:18.579Z,0
2017-10-18T07:07:18.541Z,0
2017-10-18T07:08:18.557Z,0
2017-10-18T07:09:18.536Z,0
2017-10-18T07:10:18.555Z,0
2017-10-18T07:11:18.619Z,0
2017-10-18T07:12:18.555Z,0
2017-10-18T07:13:18.544Z,0
2017-10-18T07:14:18.540Z,0
2017-10-18T07:15:18.529Z,0
2017-10-18T07:16:18.594Z,0
2017-10-18T07:17:18.542Z,0
2017-10-18T07:18:18.551Z,0
2017-10-18T07:19:18.549Z,0
2017-10-18T07:20:18.552Z,0
2017-10-18T07:21:18.604Z,0
2017-10-18T07:22:18.554Z,0
2017-10-18T07:23:18.537Z,0
2017-10-18T07:24:18.532Z,0
2017-10-18T07:25:18.535Z,0
2017-10-18T07:26:18.621Z,0
2017-10-18T07:27:18.536Z,0
2017-10-18T07:28:18.555Z,0
2017-10-18T07:29:18.546Z,0
2017-10-18T07:30:18.527Z,0
2017-10-18T07:31:18.602Z,0
2017-10-18T07:32:18.556Z,0
2017-10-18T07:33:18.533Z,0
2017-10-18T07:34:18.523Z,0
2017-10-18T07:35:18.535Z,0
2017-10-18T07:36:18.622Z,0
2017-10-18T07:37:18.529Z,0
2017-10-18T07:38:18.531Z,0
2017-10-18T07:39:18.536Z,0
2017-10-18T07:40:18.551Z,0
2017-10-18T07:41:18.619Z,0
2017-10-18T07:42:18.545Z,0
2017-10-18T07:43:18.532Z,0
2017-10-18T07:44:18.533Z,0
2017-10-18T07:45:18.536Z,0
2017-10-18T07:46:18.570Z,0
2017-10-18T07:47:18.541Z,0
2017-10-18T07:48:18.547Z,0
2017-10-18T07:49:18.542Z,0
2017-10-18T07:50:18.543Z,0
2017-10-18T07:51:18.543Z,0
2017-10-18T07:52:18.521Z,0
2017-10-18T07:53:18.551Z,0
2017-10-18T07:54:18.527Z,0
2017-10-18T07:55:18.519Z,0
2017-10-18T07:56:18.532Z,0
2017-10-18T07:57:18.524Z,0
2017-10-18T07:58:18.538Z,0
2017-10-18T07:59:18.529Z,0
2017-10-18T08:00:18.532Z,0
2017-10-18T08:01:18.519Z,0
2017-10-18T08:02:18.539Z,0
2017-10-18T08:03:18.545Z,0
2017-10-18T08:04:18.545Z,0
2017-10-18T08:05:18.538Z,0
2017-10-18T08:06:18.531Z,0
2017-10-18T08:07:18.540Z,0
2017-10-18T08:08:18.521Z,0
2017-10-18T08:09:18.516Z,0
2017-10-18T08:10:18.521Z,0
2017-10-18T08:11:18.545Z,0
2017-10-18T08:12:18.543Z,0
2017-10-18T08:13:18.530Z,0
2017-10-18T08:14:18.526Z,0
2017-10-18T08:15:18.544Z,0
2017-10-18T08:16:18.538Z,0
2017-10-18T08:17:18.543Z,0
2017-10-18T08:18:18.541Z,0
2017-10-18T08:19:18.522Z,0
2017-10-18T08:20:18.538Z,0
2017-10-18T08:21:18.537Z,0
2017-10-18T08:22:18.528Z,0
2017-10-18T08:23:18.529Z,0
2017-10-18T08:24:18.541Z,0
2017-10-18T08:25:18.519Z,0
2017-10-18T08:26:18.538Z,0
2017-10-18T08:27:18.553Z,0
2017-10-18T08:28:18.543Z,0
2017-10-18T08:29:18.564Z,0
2017-10-18T08:30:18.535Z,0
2017-10-18T08:31:18.543Z,0
2017-10-18T08:32:18.538Z,0
2017-10-18T08:33:18.531Z,0
2017-10-18T08:34:18.522Z,0
2017-10-18T08:35:18.528Z,0
2017-10-18T08:36:18.525Z,0
2017-10-18T08:37:18.526Z,0
2017-10-18T08:38:18.540Z,0
2017-10-18T08:39:18.950Z,0
2017-10-18T08:40:18.525Z,0
2017-10-18T08:41:18.541Z,0
2017-10-18T08:42:18.547Z,0
2017-10-18T08:43:18.533Z,0
2017-10-18T08:44:18.529Z,0
2017-10-18T08:45:18.541Z,0
2017-10-18T08:46:18.542Z,0
2017-10-18T08:47:18.549Z,0
2017-10-18T08:48:18.529Z,0
2017-10-18T08:49:18.521Z,0
2017-10-18T08:50:18.524Z,0
2017-10-18T08:51:18.543Z,0
2017-10-18T08:52:18.530Z,0
2017-10-18T08:53:18.526Z,0
2017-10-18T08:54:18.516Z,0
2017-10-18T08:55:18.529Z,0
2017-10-18T08:56:18.534Z,0
2017-10-18T08:57:18.547Z,0
2017-10-18T08:58:18.543Z,0
2017-10-18T08:59:18.514Z,0
2017-10-18T09:00:18.537Z,0
2017-10-18T09:01:18.526Z,0
2017-10-18T09:02:18.533Z,0
2017-10-18T09:03:18.517Z,0
2017-10-18T09:04:18.518Z,0
2017-10-18T09:05:18.521Z,0
2017-10-18T09:06:18.538Z,0
2017-10-18T09:07:18.587Z,0
2017-10-18T09:08:18.527Z,0
2017-10-18T09:09:18.528Z,0
2017-10-18T09:10:18.542Z,0
2017-10-18T09:11:18.524Z,0
2017-10-18T09:12:18.522Z,0
2017-10-18T09:13:18.543Z,0
2017-10-18T09:14:18.537Z,0
2017-10-18T09:15:18.540Z,0
2017-10-18T09:16:18.519Z,0
2017-10-18T09:17:18.564Z,0
2017-10-18T09:18:18.520Z,0
2017-10-18T09:19:18.531Z,0
2017-10-18T09:20:18.516Z,0
2017-10-18T09:21:18.538Z,0
2017-10-18T09:22:18.564Z,0
2017-10-18T09:23:18.539Z,0
2017-10-18T09:24:18.516Z,0
2017-10-18T09:25:18.541Z,0
2017-10-18T09:26:18.538Z,0
2017-10-18T09:27:18.601Z,0
2017-10-18T09:28:18.520Z,0
2017-10-18T09:29:18.521Z,0
2017-10-18T09:30:18.528Z,0
2017-10-18T09:31:18.524Z,0
2017-10-18T09:32:18.597Z,0
2017-10-18T09:33:18.536Z,0
2017-10-18T09:34:18.527Z,0
2017-10-18T09:35:18.521Z,0
2017-10-18T09:36:18.537Z,0
2017-10-18T09:37:18.568Z,0
2017-10-18T09:38:18.540Z,0.1
2017-10-18T09:39:18.524Z,0.3
2017-10-18T09:40:18.536Z,0.4
2017-10-18T09:41:18.519Z,0.5
2017-10-18T09:42:18.539Z,0.5
2017-10-18T09:43:18.540Z,0.4
2017-10-18T09:44:18.537Z,0.4
2017-10-18T09:45:18.531Z,0.4
2017-10-18T09:46:18.520Z,0.3
2017-10-18T09:47:18.523Z,0.3
2017-10-18T09:48:18.519Z,0.3
2017-10-18T09:49:18.536Z,0.3
2017-10-18T09:50:18.533Z,0.3
2017-10-18T09:51:18.537Z,0.6
2017-10-18T09:52:18.541Z,0.6
2017-10-18T09:53:18.544Z,0.6
2017-10-18T09:54:18.535Z,0.8
2017-10-18T09:55:18.517Z,1.3
2017-10-18T09:56:18.523Z,1.4
2017-10-18T09:57:18.522Z,1.2
2017-10-18T09:58:18.536Z,1.2
2017-10-18T09:59:18.527Z,1.1
2017-10-18T10:00:18.536Z,1
2017-10-18T10:01:18.541Z,1.2
2017-10-18T10:02:18.540Z,1.2
2017-10-18T10:03:18.514Z,1.2
2017-10-18T10:04:18.537Z,1
2017-10-18T10:05:18.531Z,1
2017-10-18T10:06:18.525Z,0.9
2017-10-18T10:07:18.540Z,0.8
2017-10-18T10:08:18.584Z,0.7
2017-10-18T10:09:18.536Z,0.7
2017-10-18T10:10:18.532Z,0.7
2017-10-18T10:11:18.534Z,0.6
2017-10-18T10:12:18.524Z,0.5
2017-10-18T10:13:18.566Z,0.5
2017-10-18T10:14:18.512Z,0.4
2017-10-18T10:15:18.513Z,0.4
2017-10-18T10:16:18.539Z,0.4
2017-10-18T10:17:18.536Z,0.3
2017-10-18T10:18:18.580Z,0.3
2017-10-18T10:19:18.513Z,0.3
2017-10-18T10:20:18.526Z,0.3
2017-10-18T10:21:18.534Z,0.2
2017-10-18T10:22:18.526Z,0.2
2017-10-18T10:23:18.578Z,0.2
2017-10-18T10:24:18.530Z,0.2
2017-10-18T10:25:18.535Z,0.3
2017-10-18T10:26:18.540Z,0.3
2017-10-18T10:27:18.519Z,0.2
2017-10-18T10:28:18.564Z,0.3
2017-10-18T10:29:18.523Z,0.3
2017-10-18T10:30:18.534Z,0.3
2017-10-18T10:31:18.538Z,0.2
2017-10-18T10:32:18.533Z,0.2
2017-10-18T10:33:18.586Z,0.2
2017-10-18T10:34:18.536Z,0.2
2017-10-18T10:35:18.523Z,0.3
2017-10-18T10:36:18.515Z,0.3
2017-10-18T10:37:18.531Z,0.3
2017-10-18T10:38:18.566Z,0.3
2017-10-18T10:39:18.516Z,0.3
2017-10-18T10:40:18.540Z,0.2
2017-10-18T10:41:18.562Z,0.2
2017-10-18T10:42:18.512Z,0.2
2017-10-18T10:43:18.595Z,0.2
2017-10-18T10:44:18.503Z,0.2
2017-10-18T10:45:18.514Z,0.2
2017-10-18T10:46:18.521Z,0.2
2017-10-18T10:47:18.551Z,0.2
2017-10-18T10:48:20.649Z,0.2
2017-10-18T10:49:18.687Z,0.2
2017-10-18T10:50:18.559Z,0.2
2017-10-18T10:51:21.710Z,0.2
2017-10-18T10:52:18.937Z,0.4
2017-10-18T10:53:18.749Z,0.4
2017-10-18T10:54:20.653Z,0.4
2017-10-18T10:55:18.647Z,0.4
2017-10-18T10:56:18.592Z,0.4
2017-10-18T10:57:18.708Z,0.5
2017-10-18T10:58:18.569Z,0.5
2017-10-18T10:59:20.026Z,0.5
2017-10-18T11:00:18.651Z,0.4
2017-10-18T11:01:18.541Z,0.4
2017-10-18T11:02:18.526Z,0.6
2017-10-18T11:03:18.577Z,0.7
2017-10-18T11:04:18.509Z,0.9
2017-10-18T11:05:18.535Z,0.8
2017-10-18T11:06:18.539Z,0.8
2017-10-18T11:07:18.536Z,0.7
2017-10-18T11:08:18.594Z,0.8
2017-10-18T11:09:18.507Z,0.7
2017-10-18T11:10:18.524Z,0.7
2017-10-18T11:11:18.532Z,0.7
2017-10-18T11:12:18.516Z,0.7
2017-10-18T11:13:18.609Z,0.7
2017-10-18T11:14:18.518Z,0.8
2017-10-18T11:15:18.530Z,1
2017-10-18T11:16:18.540Z,0.9
2017-10-18T11:17:18.534Z,0.9
2017-10-18T11:18:18.605Z,1
2017-10-18T11:19:18.535Z,1.1
2017-10-18T11:20:18.519Z,1
2017-10-18T11:21:18.513Z,0.9
2017-10-18T11:22:18.527Z,0.8
2017-10-18T11:23:18.582Z,0.7
2017-10-18T11:24:18.521Z,0.6
2017-10-18T11:25:18.537Z,0.6
2017-10-18T11:26:18.528Z,0.5
2017-10-18T11:27:18.512Z,0.5
2017-10-18T11:28:18.587Z,0.4
2017-10-18T11:29:18.521Z,0.4
2017-10-18T11:30:18.518Z,0.4
2017-10-18T11:31:18.531Z,0.3
2017-10-18T11:32:18.509Z,0.3
2017-10-18T11:33:18.592Z,0.3
2017-10-18T11:34:18.532Z,0.2
2017-10-18T11:35:18.536Z,0.2
2017-10-18T11:36:18.543Z,0.2
2017-10-18T11:37:18.530Z,0.2
2017-10-18T11:38:18.566Z,0.2
2017-10-18T11:39:18.515Z,0.1
2017-10-18T11:40:18.535Z,0.1
2017-10-18T11:41:18.515Z,0.1
2017-10-18T11:42:18.534Z,0.1
2017-10-18T11:43:18.515Z,0.1
2017-10-18T11:44:18.543Z,0.1
2017-10-18T11:45:19.471Z,0.1
2017-10-18T11:46:18.532Z,0.1
2017-10-18T11:47:18.528Z,0.1
2017-10-18T11:48:18.514Z,0.1
2017-10-18T11:49:18.512Z,0.1
2017-10-18T11:50:18.528Z,0
2017-10-18T11:51:18.578Z,0
2017-10-18T11:52:18.524Z,0
2017-10-18T11:53:18.597Z,0
2017-10-18T11:54:18.697Z,0
2017-10-18T11:55:18.540Z,0
2017-10-18T11:56:18.640Z,0
2017-10-18T11:57:18.537Z,0
2017-10-18T11:58:18.507Z,0
2017-10-18T11:59:19.770Z,0
2017-10-18T12:00:18.536Z,0
2017-10-18T12:01:18.537Z,0
2017-10-18T12:02:18.539Z,0
2017-10-18T12:03:18.537Z,0
2017-10-18T12:04:19.157Z,0
2017-10-18T12:05:18.535Z,0
2017-10-18T12:06:18.533Z,0
2017-10-18T12:07:18.516Z,0
2017-10-18T12:08:18.512Z,0
2017-10-18T12:09:18.533Z,0
2017-10-18T12:10:18.533Z,0
2017-10-18T12:11:19.157Z,0
2017-10-18T12:12:18.513Z,0
2017-10-18T12:13:18.538Z,0
2017-10-18T12:14:18.532Z,0
2017-10-18T12:15:19.118Z,0
2017-10-18T12:16:18.534Z,0
2017-10-18T12:17:18.520Z,0
2017-10-18T12:18:18.514Z,0.3
2017-10-18T12:19:18.528Z,0.5
2017-10-18T12:20:18.521Z,0.5
2017-10-18T12:21:18.531Z,0.5
2017-10-18T12:22:18.524Z,0.5
2017-10-18T12:23:18.514Z,0.4
2017-10-18T12:24:18.538Z,0.4
2017-10-18T12:25:19.499Z,0.4
2017-10-18T12:26:18.532Z,0.3
2017-10-18T12:27:18.532Z,0.3
2017-10-18T12:28:18.514Z,0.3
2017-10-18T12:29:18.533Z,0.2
2017-10-18T12:30:18.535Z,0.2
2017-10-18T12:31:18.532Z,0.2
2017-10-18T12:32:18.520Z,0.2
2017-10-18T12:33:20.578Z,0.2
2017-10-18T12:34:19.207Z,0.1
2017-10-18T12:35:18.513Z,0.1
2017-10-18T12:36:18.516Z,0.1
2017-10-18T12:37:18.529Z,0.1
2017-10-18T12:38:18.525Z,0.1
2017-10-18T12:39:19.234Z,0.1
2017-10-18T12:40:18.518Z,0.1
2017-10-18T12:41:18.534Z,0.1
2017-10-18T12:42:18.517Z,0.1
2017-10-18T12:43:18.522Z,0.1
2017-10-18T12:44:19.046Z,0.1
2017-10-18T12:45:18.518Z,0
2017-10-18T12:46:18.514Z,0
2017-10-18T12:47:18.536Z,0
2017-10-18T12:48:18.529Z,0
2017-10-18T12:49:18.517Z,0
2017-10-18T12:50:19.660Z,0
2017-10-18T12:51:19.755Z,0
2017-10-18T12:52:21.056Z,0
2017-10-18T12:53:18.531Z,0
2017-10-18T12:54:18.586Z,0
2017-10-18T12:55:18.505Z,0
2017-10-18T12:56:18.530Z,0
2017-10-18T12:57:18.543Z,0
2017-10-18T12:58:19.187Z,0
2017-10-18T12:59:18.606Z,0
2017-10-18T13:00:19.530Z,0
2017-10-18T13:01:18.544Z,0
2017-10-18T13:02:18.530Z,0
2017-10-18T13:03:19.542Z,0
2017-10-18T13:04:18.618Z,0
2017-10-18T13:05:18.565Z,0
2017-10-18T13:06:18.536Z,0
2017-10-18T13:07:18.519Z,0
2017-10-18T13:08:18.549Z,0
2017-10-18T13:09:18.609Z,0
2017-10-18T13:10:18.542Z,0
2017-10-18T13:11:18.543Z,0
2017-10-18T13:12:18.513Z,0
2017-10-18T13:13:18.510Z,0
2017-10-18T13:14:19.236Z,0
2017-10-18T13:15:18.511Z,0
2017-10-18T13:16:18.549Z,0
2017-10-18T13:17:19.044Z,0
2017-10-18T13:18:18.529Z,0
2017-10-18T13:19:18.580Z,0
2017-10-18T13:20:18.572Z,0
2017-10-18T13:21:18.556Z,0
2017-10-18T13:22:20.312Z,0
2017-10-18T13:23:18.497Z,0
2017-10-18T13:24:18.596Z,0
2017-10-18T13:25:18.522Z,0
2017-10-18T13:26:18.531Z,0
2017-10-18T13:27:18.523Z,0
2017-10-18T13:28:18.531Z,0
2017-10-18T13:29:18.581Z,0
2017-10-18T13:30:18.517Z,0
2017-10-18T13:31:18.537Z,0
2017-10-18T13:32:18.554Z,0
2017-10-18T13:33:18.529Z,0
2017-10-18T13:34:18.602Z,0
2017-10-18T13:35:18.515Z,0
2017-10-18T13:36:18.521Z,0
2017-10-18T13:37:18.526Z,0
2017-10-18T13:38:18.545Z,0
2017-10-18T13:39:18.555Z,0
2017-10-18T13:40:18.528Z,0
2017-10-18T13:41:18.508Z,0
2017-10-18T13:42:19.102Z,0
2017-10-18T13:43:18.522Z,0
2017-10-18T13:44:18.531Z,0
2017-10-18T13:45:18.504Z,0
2017-10-18T13:46:18.551Z,0
2017-10-18T13:47:18.518Z,0
2017-10-18T13:48:18.530Z,0
2017-10-18T13:49:19.149Z,0
2017-10-18T13:50:18.514Z,0
2017-10-18T13:51:18.510Z,0
2017-10-18T13:52:18.507Z,0
2017-10-18T13:53:19.166Z,0
2017-10-18T13:54:18.541Z,0
2017-10-18T13:55:18.514Z,0
2017-10-18T13:56:18.555Z,0
2017-10-18T13:57:18.978Z,0
2017-10-18T13:58:18.956Z,0
2017-10-18T13:59:18.547Z,0
2017-10-18T14:00:18.513Z,0
2017-10-18T14:01:18.522Z,0
2017-10-18T14:02:18.512Z,0
2017-10-18T14:03:18.511Z,0
2017-10-18T14:04:18.534Z,0
2017-10-18T14:05:18.510Z,0
2017-10-18T14:06:18.521Z,0
2017-10-18T14:07:18.505Z,0
2017-10-18T14:08:18.538Z,0
2017-10-18T14:09:18.528Z,0
2017-10-18T14:10:18.529Z,0
2017-10-18T14:11:18.537Z,0
2017-10-18T14:12:18.503Z,0
2017-10-18T14:13:18.512Z,0
2017-10-18T14:14:18.510Z,0
2017-10-18T14:15:18.516Z,0
2017-10-18T14:16:18.509Z,0
2017-10-18T14:17:18.500Z,0
2017-10-18T14:18:19.032Z,0
2017-10-18T14:19:18.527Z,0
2017-10-18T14:20:19.149Z,0
2017-10-18T14:21:18.527Z,0
2017-10-18T14:22:18.528Z,0
2017-10-18T14:23:18.526Z,0
2017-10-18T14:24:18.532Z,0
2017-10-18T14:25:18.570Z,0
2017-10-18T14:26:18.539Z,0
2017-10-18T14:27:18.525Z,0.1
2017-10-18T14:28:18.527Z,0.3
2017-10-18T14:29:18.508Z,0.4
2017-10-18T14:30:18.591Z,0.4
2017-10-18T14:31:18.518Z,0.4
2017-10-18T14:32:18.521Z,0.4
2017-10-18T14:33:18.523Z,0.3
2017-10-18T14:34:18.532Z,0.3
2017-10-18T14:35:18.576Z,0.3
2017-10-18T14:36:18.509Z,0.2
2017-10-18T14:37:18.504Z,0.2
2017-10-18T14:38:18.521Z,0.2
2017-10-18T14:39:18.522Z,0.2